createdAt,value
2023-01-06T00:01:14.007Z,100.00
2023-01-06T00:03:43.224Z,99.93
2023-01-06T00:06:14.003Z,100.00
2023-01-06T00:08:41.594Z,100.00
2023-01-06T00:11:10.785Z,100.00
2023-01-06T00:13:38.741Z,100.00
2023-01-06T00:16:07.633Z,100.00
2023-01-06T00:18:35.436Z,100.00
2023-01-06T00:21:04.947Z,100.00
2023-01-06T00:23:32.997Z,100.00
2023-01-06T00:26:00.634Z,100.00
2023-01-06T00:28:28.315Z,100.00
2023-01-06T00:30:56.139Z,100.00
2023-01-06T00:33:24.027Z,100.00
2023-01-06T00:35:52.197Z,100.00
2023-01-06T00:38:21.589Z,100.00
2023-01-06T00:40:49.163Z,100.00
2023-01-06T00:43:16.774Z,100.00
2023-01-06T00:45:44.438Z,100.00
2023-01-06T00:48:12.042Z,100.00
2023-01-06T00:50:39.601Z,100.00
2023-01-06T00:53:07.194Z,100.00
2023-01-06T00:55:36.152Z,100.00
2023-01-06T00:58:03.787Z,100.00
2023-01-06T01:00:31.791Z,100.00
2023-01-06T01:02:59.963Z,100.00
2023-01-06T01:05:27.775Z,100.00
2023-01-06T01:07:55.379Z,100.00
2023-01-06T01:10:22.994Z,100.00
2023-01-06T01:12:53.965Z,100.00
2023-01-06T01:15:22.371Z,100.00
2023-01-06T01:17:50.045Z,100.00
2023-01-06T01:20:17.691Z,100.00
2023-01-06T01:22:45.312Z,100.00
2023-01-06T01:25:12.877Z,100.00
2023-01-06T01:27:40.507Z,100.00
2023-01-06T01:30:10.406Z,100.00
2023-01-06T01:32:37.968Z,100.00
2023-01-06T01:35:05.984Z,100.00
2023-01-06T01:37:33.594Z,100.00
2023-01-06T01:40:01.245Z,100.00
2023-01-06T01:42:29.006Z,100.00
2023-01-06T01:45:00.136Z,100.00
2023-01-06T01:47:45.953Z,100.00
2023-01-06T01:50:25.336Z,100.00
2023-01-06T01:52:55.779Z,100.00
2023-01-06T01:55:24.759Z,100.00
2023-01-06T01:57:59.746Z,100.00
2023-01-06T02:00:27.736Z,100.00
2023-01-06T02:02:57.707Z,100.00
2023-01-06T02:05:28.111Z,100.00
2023-01-06T02:07:59.264Z,100.00
2023-01-06T02:10:26.995Z,100.00
2023-01-06T02:12:59.023Z,100.00
2023-01-06T02:15:29.478Z,100.00
2023-01-06T02:18:15.491Z,100.00
2023-01-06T02:21:04.790Z,100.00
2023-01-06T02:23:57.059Z,100.00
2023-01-06T02:27:04.238Z,100.00
2023-01-06T02:30:06.459Z,100.00
2023-01-06T02:32:49.434Z,100.00
2023-01-06T02:35:34.367Z,100.00
2023-01-06T02:38:13.831Z,100.00
2023-01-06T02:40:56.687Z,100.00
2023-01-06T02:43:33.223Z,100.00
2023-01-06T02:46:10.814Z,100.00
2023-01-06T02:48:47.175Z,100.00
2023-01-06T02:51:19.674Z,100.00
2023-01-06T02:54:01.544Z,100.00
2023-01-06T02:56:33.215Z,100.00
2023-01-06T02:59:07.096Z,100.00
2023-01-06T03:01:36.349Z,100.00
2023-01-06T03:04:11.076Z,100.00
2023-01-06T03:06:44.794Z,100.00
2023-01-06T03:09:19.272Z,100.00
2023-01-06T03:11:51.925Z,100.00
2023-01-06T03:14:25.658Z,100.00
2023-01-06T03:16:55.691Z,100.00
2023-01-06T03:19:25.971Z,100.00
2023-01-06T03:21:55.275Z,100.00
2023-01-06T03:24:24.491Z,100.00
2023-01-06T03:26:53.975Z,100.00
2023-01-06T03:29:23.349Z,100.00
2023-01-06T03:32:02.379Z,100.00
2023-01-06T03:34:52.164Z,99.94
2023-01-06T03:37:31.385Z,99.79
2023-01-06T03:40:09.850Z,100.00
2023-01-06T03:43:12.592Z,99.77
2023-01-06T03:45:52.061Z,99.86
2023-01-06T03:48:30.456Z,100.00
2023-01-06T03:51:06.234Z,100.00
2023-01-06T03:53:40.487Z,100.00
2023-01-06T03:56:17.561Z,100.00
2023-01-06T03:58:47.355Z,99.66
2023-01-06T04:01:16.297Z,99.92
2023-01-06T04:03:47.078Z,99.69
2023-01-06T04:06:16.369Z,99.08
2023-01-06T04:08:44.383Z,99.07
2023-01-06T04:11:33.281Z,99.15
2023-01-06T04:14:00.345Z,98.83
2023-01-06T04:16:29.106Z,99.25
2023-01-06T04:18:57.061Z,98.97
2023-01-06T04:21:25.976Z,99.00
2023-01-06T04:23:54.145Z,98.44
2023-01-06T04:26:21.983Z,97.96
2023-01-06T04:28:51.375Z,98.11
2023-01-06T04:31:19.719Z,98.74
2023-01-06T04:33:50.003Z,98.89
2023-01-06T04:36:20.168Z,98.35
2023-01-06T04:38:52.105Z,98.39
2023-01-06T04:41:19.688Z,98.42
2023-01-06T04:43:47.262Z,98.52
2023-01-06T04:46:14.793Z,98.61
2023-01-06T04:48:42.331Z,98.96
2023-01-06T04:51:12.077Z,99.03
2023-01-06T04:53:42.090Z,99.49
2023-01-06T04:56:13.442Z,99.35
2023-01-06T04:58:41.133Z,99.92
2023-01-06T05:01:10.976Z,99.61
2023-01-06T05:03:38.690Z,99.45
2023-01-06T05:06:09.797Z,99.95
2023-01-06T05:08:38.424Z,99.04
2023-01-06T05:11:08.343Z,99.34
2023-01-06T05:13:37.705Z,99.65
2023-01-06T05:16:07.513Z,99.50
2023-01-06T05:18:35.311Z,99.46
2023-01-06T05:21:03.562Z,98.38
2023-01-06T05:23:31.646Z,98.56
2023-01-06T05:25:59.254Z,98.50
2023-01-06T05:28:26.912Z,99.72
2023-01-06T05:31:00.025Z,99.72
2023-01-06T05:33:27.595Z,100.00
2023-01-06T05:35:58.652Z,100.00
2023-01-06T05:38:26.196Z,99.59
2023-01-06T05:40:54.019Z,99.44
2023-01-06T05:43:21.910Z,100.00
2023-01-06T05:45:49.688Z,99.83
2023-01-06T05:48:18.589Z,99.22
2023-01-06T05:50:46.144Z,98.17
2023-01-06T05:53:13.708Z,98.52
2023-01-06T05:55:41.277Z,99.17
2023-01-06T05:58:08.928Z,98.48
2023-01-06T06:00:36.712Z,98.34
2023-01-06T06:03:04.463Z,98.49
2023-01-06T06:05:33.361Z,98.59
2023-01-06T06:08:00.910Z,98.69
2023-01-06T06:10:28.442Z,98.50
2023-01-06T06:12:56.011Z,98.22
2023-01-06T06:15:23.573Z,98.00
2023-01-06T06:17:51.087Z,98.08
2023-01-06T06:20:18.684Z,97.58
2023-01-06T06:22:47.642Z,97.26
2023-01-06T06:25:15.407Z,96.09
2023-01-06T06:27:42.983Z,95.71
2023-01-06T06:30:11.222Z,95.81
2023-01-06T06:32:38.823Z,96.00
2023-01-06T06:35:07.410Z,95.31
2023-01-06T06:37:35.003Z,95.58
2023-01-06T06:40:04.321Z,95.51
2023-01-06T06:42:31.817Z,95.08
2023-01-06T06:44:59.360Z,95.97
2023-01-06T06:47:26.912Z,96.35
2023-01-06T06:49:54.442Z,95.78
2023-01-06T06:52:21.943Z,96.13
2023-01-06T06:54:49.493Z,95.81
2023-01-06T06:57:18.446Z,95.20
2023-01-06T06:59:46.024Z,95.14
2023-01-06T07:02:13.652Z,96.41
2023-01-06T07:04:41.359Z,95.87
2023-01-06T07:07:08.952Z,95.63
2023-01-06T07:09:36.574Z,94.92
2023-01-06T07:12:04.465Z,95.09
2023-01-06T07:14:33.383Z,95.01
2023-01-06T07:17:01.935Z,94.41
2023-01-06T07:19:29.546Z,93.68
2023-01-06T07:21:57.103Z,93.19
2023-01-06T07:24:24.778Z,94.04
2023-01-06T07:26:52.325Z,93.93
2023-01-06T07:29:19.852Z,94.52
2023-01-06T07:31:48.781Z,93.87
2023-01-06T07:34:16.343Z,99.52
2023-01-06T07:36:43.897Z,91.69
2023-01-06T07:39:11.433Z,91.38
2023-01-06T07:41:38.991Z,90.95
2023-01-06T07:44:12.095Z,90.14
2023-01-06T07:46:39.676Z,89.81
2023-01-06T07:49:08.630Z,90.80
2023-01-06T07:51:36.145Z,90.98
2023-01-06T07:54:03.898Z,91.11
2023-01-06T07:56:31.478Z,90.25
2023-01-06T07:58:59.042Z,90.63
2023-01-06T08:01:26.734Z,90.09
2023-01-06T08:03:54.354Z,90.36
2023-01-06T08:06:23.356Z,90.13
2023-01-06T08:08:50.958Z,90.47
2023-01-06T08:11:21.381Z,89.87
2023-01-06T08:13:48.992Z,89.29
2023-01-06T08:16:16.606Z,89.57
2023-01-06T08:18:44.163Z,90.38
2023-01-06T08:21:12.476Z,88.74
2023-01-06T08:23:41.524Z,87.25
2023-01-06T08:26:13.339Z,86.82
2023-01-06T08:28:41.181Z,86.75
2023-01-06T08:31:10.326Z,87.14
2023-01-06T08:33:37.926Z,86.82
2023-01-06T08:36:08.023Z,86.87
2023-01-06T08:38:37.409Z,86.30
2023-01-06T08:41:06.770Z,86.73
2023-01-06T08:43:34.548Z,85.28
2023-01-06T08:46:03.670Z,84.89
2023-01-06T08:48:32.354Z,84.49
2023-01-06T08:51:03.754Z,84.54
2023-01-06T08:53:31.342Z,84.71
2023-01-06T08:55:59.280Z,84.97
2023-01-06T08:58:28.208Z,85.63
2023-01-06T09:00:55.949Z,85.85
2023-01-06T09:03:23.557Z,85.20
2023-01-06T09:05:55.419Z,84.42
2023-01-06T09:08:23.466Z,84.04
2023-01-06T09:10:51.422Z,84.29
2023-01-06T09:13:19.029Z,83.58
2023-01-06T09:15:49.008Z,82.17
2023-01-06T09:18:16.897Z,83.34
2023-01-06T09:20:44.465Z,83.63
2023-01-06T09:23:11.982Z,79.41
2023-01-06T09:25:39.647Z,76.60
2023-01-06T09:28:07.237Z,76.29
2023-01-06T09:30:34.832Z,75.96
2023-01-06T09:33:03.744Z,76.39
2023-01-06T09:35:31.340Z,75.75
2023-01-06T09:37:58.937Z,74.37
2023-01-06T09:40:34.053Z,74.85
2023-01-06T09:43:15.718Z,74.56
2023-01-06T09:45:47.745Z,76.27
2023-01-06T09:48:22.523Z,74.22
2023-01-06T09:50:54.806Z,74.89
2023-01-06T09:53:27.273Z,74.79
2023-01-06T09:56:00.368Z,74.41
2023-01-06T09:58:32.698Z,73.92
2023-01-06T10:01:03.948Z,73.67
2023-01-06T10:03:33.131Z,72.55
2023-01-06T10:06:11.997Z,71.72
2023-01-06T10:08:50.027Z,72.25
2023-01-06T10:11:27.657Z,72.28
2023-01-06T10:14:07.683Z,72.19
2023-01-06T10:16:48.669Z,71.63
2023-01-06T10:19:30.140Z,72.08
2023-01-06T10:22:05.035Z,72.20
2023-01-06T10:24:42.067Z,71.81
2023-01-06T10:27:21.927Z,71.05
2023-01-06T10:29:51.660Z,70.53
2023-01-06T10:32:19.262Z,70.60
2023-01-06T10:34:51.797Z,70.42
2023-01-06T10:37:24.203Z,71.26
2023-01-06T10:40:00.131Z,71.65
2023-01-06T10:42:52.061Z,72.12
2023-01-06T10:45:21.728Z,72.75
2023-01-06T10:47:51.191Z,72.40
2023-01-06T10:50:20.761Z,72.74
2023-01-06T10:52:49.430Z,73.66
2023-01-06T10:55:33.138Z,73.16
2023-01-06T10:58:03.579Z,73.42
2023-01-06T11:00:32.145Z,73.46
2023-01-06T11:03:19.393Z,72.86
2023-01-06T11:06:05.225Z,71.59
2023-01-06T11:08:33.653Z,71.65
2023-01-06T11:11:01.351Z,70.48
2023-01-06T11:13:34.341Z,70.65
2023-01-06T11:16:08.801Z,69.89
2023-01-06T11:18:38.079Z,69.15
2023-01-06T11:21:11.768Z,68.46
2023-01-06T11:23:41.511Z,69.36
2023-01-06T11:26:17.390Z,68.96
2023-01-06T11:28:46.500Z,68.93
2023-01-06T11:31:21.332Z,68.12
2023-01-06T11:33:49.587Z,68.13
2023-01-06T11:36:21.476Z,67.43
2023-01-06T11:38:52.055Z,69.26
2023-01-06T11:41:25.788Z,68.60
2023-01-06T11:43:57.960Z,68.94
2023-01-06T11:46:26.524Z,68.03
2023-01-06T11:49:01.380Z,71.09
2023-01-06T11:51:48.486Z,66.10
2023-01-06T11:54:26.548Z,65.34
2023-01-06T11:57:02.008Z,65.80
2023-01-06T11:59:39.829Z,65.47
2023-01-06T12:02:14.522Z,66.41
2023-01-06T12:04:47.058Z,68.27
2023-01-06T12:07:21.488Z,68.04
2023-01-06T12:09:51.455Z,67.41
2023-01-06T12:12:22.522Z,68.15
2023-01-06T12:14:50.257Z,67.87
2023-01-06T12:17:31.685Z,67.42
2023-01-06T12:20:03.368Z,67.91
2023-01-06T12:22:38.176Z,67.58
2023-01-06T12:25:12.025Z,67.65
2023-01-06T12:27:45.108Z,69.33
2023-01-06T12:30:19.507Z,69.39
2023-01-06T12:32:49.958Z,69.64
2023-01-06T12:35:23.353Z,69.34
2023-01-06T12:37:54.444Z,69.79
2023-01-06T12:40:28.844Z,69.64
2023-01-06T12:43:04.620Z,69.10
2023-01-06T12:45:43.467Z,69.67
2023-01-06T12:48:22.027Z,69.23
2023-01-06T12:50:54.393Z,68.71
2023-01-06T12:53:27.328Z,69.25
2023-01-06T12:56:17.954Z,68.79
2023-01-06T12:58:51.148Z,68.39
2023-01-06T13:01:25.935Z,69.15
2023-01-06T13:04:36.193Z,68.23
2023-01-06T13:07:12.544Z,67.03
2023-01-06T13:09:57.116Z,67.76
2023-01-06T13:12:56.352Z,69.44
2023-01-06T13:15:27.387Z,70.72
2023-01-06T13:18:05.694Z,71.50
2023-01-06T13:20:40.031Z,72.38
2023-01-06T13:23:22.908Z,71.92
2023-01-06T13:26:23.598Z,70.91
2023-01-06T13:29:02.961Z,69.38
2023-01-06T13:31:53.893Z,68.65
2023-01-06T13:34:47.649Z,67.92
2023-01-06T13:37:34.180Z,68.51
2023-01-06T13:40:07.887Z,66.59
2023-01-06T13:42:42.386Z,67.56
2023-01-06T13:45:17.079Z,66.69
2023-01-06T13:47:46.423Z,66.71
2023-01-06T13:50:16.312Z,67.36
2023-01-06T13:52:44.534Z,68.68
2023-01-06T13:55:30.555Z,68.59
2023-01-06T13:58:35.617Z,68.99
2023-01-06T14:01:08.317Z,68.06
2023-01-06T14:03:36.696Z,67.35
2023-01-06T14:06:05.509Z,66.59
2023-01-06T14:08:38.511Z,66.76
2023-01-06T14:11:22.235Z,67.19
2023-01-06T14:13:55.480Z,67.32
2023-01-06T14:16:23.841Z,67.09
2023-01-06T14:19:04.921Z,67.19
2023-01-06T14:21:32.750Z,66.85
2023-01-06T14:24:02.705Z,66.51
2023-01-06T14:26:47.498Z,66.12
2023-01-06T14:29:52.540Z,66.70
2023-01-06T14:33:05.726Z,68.20
2023-01-06T14:35:38.190Z,68.20
2023-01-06T14:38:13.379Z,68.67
2023-01-06T14:40:50.873Z,68.88
2023-01-06T14:43:30.773Z,69.10
2023-01-06T14:46:03.024Z,69.37
2023-01-06T14:48:37.343Z,69.26
2023-01-06T14:51:05.898Z,69.69
2023-01-06T14:53:38.104Z,69.85
2023-01-06T14:56:07.795Z,70.12
2023-01-06T14:58:37.264Z,70.05
2023-01-06T15:01:07.119Z,70.49
2023-01-06T15:03:37.407Z,70.39
2023-01-06T15:06:13.686Z,70.03
2023-01-06T15:08:41.308Z,70.23
2023-01-06T15:11:31.008Z,71.33
2023-01-06T15:13:58.701Z,70.90
2023-01-06T15:16:33.780Z,71.79
2023-01-06T15:19:06.571Z,72.10
2023-01-06T15:21:39.793Z,72.65
2023-01-06T15:24:19.441Z,73.13
2023-01-06T15:26:47.211Z,73.57
2023-01-06T15:29:16.470Z,72.75
2023-01-06T15:31:45.086Z,73.00
2023-01-06T15:34:17.685Z,73.17
2023-01-06T15:36:47.289Z,73.38
2023-01-06T15:39:16.751Z,72.95
2023-01-06T15:41:45.055Z,73.02
2023-01-06T15:44:26.357Z,72.83
2023-01-06T15:46:57.675Z,72.89
2023-01-06T15:49:32.398Z,73.06
2023-01-06T15:52:04.366Z,73.21
2023-01-06T15:54:34.881Z,73.26
2023-01-06T15:57:15.655Z,73.11
2023-01-06T15:59:54.183Z,73.39
2023-01-06T16:02:25.687Z,73.09
2023-01-06T16:04:54.770Z,73.98
2023-01-06T16:07:36.161Z,73.81
2023-01-06T16:10:04.225Z,74.78
2023-01-06T16:12:31.817Z,74.99
2023-01-06T16:14:59.406Z,75.17
2023-01-06T16:17:31.224Z,75.56
2023-01-06T16:20:03.252Z,76.01
2023-01-06T16:22:34.706Z,76.09
2023-01-06T16:25:04.583Z,76.60
2023-01-06T16:27:32.285Z,76.56
2023-01-06T16:30:19.162Z,77.49
2023-01-06T16:32:46.995Z,78.10
2023-01-06T16:35:17.661Z,78.50
2023-01-06T16:37:45.632Z,77.88
2023-01-06T16:40:14.509Z,79.13
2023-01-06T16:42:43.615Z,79.99
2023-01-06T16:45:18.623Z,80.37
2023-01-06T16:47:46.804Z,80.61
2023-01-06T16:50:19.974Z,81.63
2023-01-06T16:52:49.959Z,82.11
2023-01-06T16:55:19.667Z,82.78
2023-01-06T16:57:49.771Z,82.84
2023-01-06T17:00:19.591Z,83.22
2023-01-06T17:02:48.482Z,83.54
2023-01-06T17:05:21.949Z,83.99
2023-01-06T17:07:49.763Z,84.65
2023-01-06T17:10:21.109Z,84.40
2023-01-06T17:13:12.032Z,84.64
2023-01-06T17:15:40.118Z,85.14
2023-01-06T17:18:27.934Z,85.80
2023-01-06T17:21:02.576Z,85.55
2023-01-06T17:23:39.868Z,85.93
2023-01-06T17:26:13.268Z,85.98
2023-01-06T17:28:40.689Z,85.71
2023-01-06T17:31:14.333Z,85.91
2023-01-06T17:33:42.128Z,85.89
2023-01-06T17:36:23.920Z,86.42
2023-01-06T17:38:52.388Z,86.11
2023-01-06T17:41:20.582Z,86.40
2023-01-06T17:43:48.460Z,86.63
2023-01-06T17:46:25.099Z,86.88
2023-01-06T17:48:59.547Z,87.41
2023-01-06T17:51:28.443Z,87.26
2023-01-06T17:54:19.106Z,87.17
2023-01-06T17:56:47.386Z,87.30
2023-01-06T17:59:18.259Z,87.22
2023-01-06T18:01:45.983Z,87.04
2023-01-06T18:04:15.828Z,87.25
2023-01-06T18:06:52.563Z,87.43
2023-01-06T18:09:23.352Z,87.41
2023-01-06T18:11:52.227Z,87.11
2023-01-06T18:14:29.518Z,87.11
2023-01-06T18:16:59.840Z,87.13
2023-01-06T18:19:30.862Z,87.71
2023-01-06T18:22:00.299Z,87.45
2023-01-06T18:24:33.654Z,87.95
2023-01-06T18:27:03.196Z,87.84
2023-01-06T18:29:36.358Z,88.22
2023-01-06T18:32:27.049Z,88.38
2023-01-06T18:34:56.594Z,88.64
2023-01-06T18:37:28.753Z,88.71
2023-01-06T18:39:59.018Z,87.75
2023-01-06T18:42:29.881Z,87.55
2023-01-06T18:45:03.378Z,87.17
2023-01-06T18:47:32.151Z,87.48
2023-01-06T18:50:13.942Z,87.40
2023-01-06T18:52:46.181Z,86.67
2023-01-06T18:55:18.785Z,86.36
2023-01-06T18:57:51.441Z,85.79
2023-01-06T19:00:37.030Z,85.52
2023-01-06T19:03:29.582Z,86.75
2023-01-06T19:06:07.314Z,86.44
2023-01-06T19:08:38.414Z,86.68
2023-01-06T19:11:14.395Z,86.02
2023-01-06T19:13:42.613Z,85.59
2023-01-06T19:16:28.539Z,85.28
2023-01-06T19:19:00.513Z,84.75
2023-01-06T19:21:28.272Z,84.79
2023-01-06T19:23:57.192Z,84.16
2023-01-06T19:26:31.815Z,84.83
2023-01-06T19:29:02.822Z,84.67
2023-01-06T19:31:31.068Z,85.06
2023-01-06T19:34:00.776Z,84.99
2023-01-06T19:36:43.940Z,85.49
2023-01-06T19:39:41.594Z,85.63
2023-01-06T19:42:19.251Z,85.43
2023-01-06T19:44:50.197Z,85.29
2023-01-06T19:47:20.415Z,85.79
2023-01-06T19:49:52.981Z,85.43
2023-01-06T19:52:34.528Z,85.53
2023-01-06T19:55:22.964Z,85.60
2023-01-06T19:57:52.428Z,86.19
2023-01-06T20:00:28.522Z,86.57
2023-01-06T20:02:58.495Z,85.55
2023-01-06T20:05:27.557Z,85.93
2023-01-06T20:07:55.637Z,86.99
2023-01-06T20:10:24.782Z,86.26
2023-01-06T20:12:52.347Z,86.12
2023-01-06T20:15:19.960Z,86.58
2023-01-06T20:17:47.476Z,86.39
2023-01-06T20:20:15.504Z,86.89
2023-01-06T20:22:44.566Z,87.33
2023-01-06T20:25:12.181Z,87.42
2023-01-06T20:27:41.088Z,87.26
2023-01-06T20:30:09.572Z,86.60
2023-01-06T20:32:37.175Z,87.83
2023-01-06T20:35:06.365Z,88.01
2023-01-06T20:37:34.234Z,88.37
2023-01-06T20:40:02.178Z,88.46
2023-01-06T20:42:29.712Z,88.71
2023-01-06T20:44:58.639Z,88.54
2023-01-06T20:47:26.213Z,88.20
2023-01-06T20:49:53.830Z,88.69
2023-01-06T20:52:21.372Z,88.94
2023-01-06T20:54:49.043Z,88.87
2023-01-06T20:57:16.588Z,88.95
2023-01-06T20:59:44.158Z,88.52
2023-01-06T21:02:13.213Z,88.70
2023-01-06T21:04:40.883Z,88.92
2023-01-06T21:07:08.486Z,89.07
2023-01-06T21:09:36.072Z,89.51
2023-01-06T21:12:05.672Z,89.15
2023-01-06T21:14:34.378Z,88.93
2023-01-06T21:17:03.636Z,89.57
2023-01-06T21:19:32.482Z,89.40
2023-01-06T21:22:00.000Z,89.84
2023-01-06T21:24:27.587Z,89.99
2023-01-06T21:26:55.202Z,89.57
2023-01-06T21:29:22.806Z,89.02
2023-01-06T21:31:50.362Z,88.72
2023-01-06T21:34:17.974Z,88.36
2023-01-06T21:36:46.868Z,88.51
2023-01-06T21:39:15.056Z,88.23
2023-01-06T21:42:00.218Z,87.73
2023-01-06T21:44:27.759Z,87.90
2023-01-06T21:46:55.282Z,88.57
2023-01-06T21:49:22.889Z,88.24
2023-01-06T21:51:53.896Z,89.33
2023-01-06T21:54:21.810Z,89.13
2023-01-06T21:56:50.340Z,89.25
2023-01-06T21:59:18.457Z,90.10
2023-01-06T22:01:46.164Z,89.89
2023-01-06T22:04:13.932Z,89.86
2023-01-06T22:06:43.777Z,88.50
2023-01-06T22:09:15.100Z,88.51
2023-01-06T22:11:44.613Z,88.67
2023-01-06T22:14:13.578Z,88.46
2023-01-06T22:16:41.971Z,88.72
2023-01-06T22:19:12.025Z,89.31
2023-01-06T22:21:41.136Z,89.01
2023-01-06T22:24:11.815Z,88.82
2023-01-06T22:26:40.719Z,88.21
2023-01-06T22:29:08.375Z,88.48
2023-01-06T22:31:36.122Z,87.93
2023-01-06T22:34:03.708Z,88.52
2023-01-06T22:36:31.229Z,88.91
2023-01-06T22:38:58.807Z,88.78
2023-01-06T22:41:26.351Z,89.21
2023-01-06T22:43:55.220Z,89.29
2023-01-06T22:46:22.923Z,89.99
2023-01-06T22:48:50.651Z,90.14
2023-01-06T22:51:18.203Z,90.15
2023-01-06T22:53:45.841Z,89.84
2023-01-06T22:56:13.633Z,90.09
2023-01-06T22:58:41.874Z,90.28
2023-01-06T23:01:10.981Z,90.67
2023-01-06T23:03:38.988Z,90.35
2023-01-06T23:06:09.396Z,89.10
2023-01-06T23:08:42.868Z,89.52
2023-01-06T23:11:14.682Z,89.71
2023-01-06T23:13:43.287Z,90.38
2023-01-06T23:16:15.070Z,90.13
2023-01-06T23:18:44.609Z,90.17
2023-01-06T23:21:15.013Z,89.89
2023-01-06T23:23:43.801Z,89.58
2023-01-06T23:26:13.986Z,89.77
2023-01-06T23:28:42.477Z,89.27
2023-01-06T23:31:13.193Z,89.19
2023-01-06T23:33:42.412Z,88.72
2023-01-06T23:36:12.010Z,88.99
2023-01-06T23:38:40.248Z,89.42
2023-01-06T23:41:10.270Z,89.59
2023-01-06T23:43:38.782Z,89.87
2023-01-06T23:46:08.609Z,89.19
2023-01-06T23:48:37.987Z,90.03
2023-01-06T23:51:06.990Z,89.30
2023-01-06T23:53:35.551Z,89.70
2023-01-06T23:56:04.624Z,89.89
2023-01-06T23:58:34.261Z,89.97
